sensor_id;sensor_type;location;lat;lon;timestamp;temperature;humidity
11666;DHT22;5889;51.350;6.708;2023-06-10T00:01:24;22.80;82.50
11666;DHT22;5889;51.350;6.708;2023-06-10T00:03:51;22.80;82.50
11666;DHT22;5889;51.350;6.708;2023-06-10T00:06:18;22.80;82.60
11666;DHT22;5889;51.350;6.708;2023-06-10T00:08:48;22.80;82.60
11666;DHT22;5889;51.350;6.708;2023-06-10T00:11:14;22.70;82.70
11666;DHT22;5889;51.350;6.708;2023-06-10T00:13:41;22.70;82.80
11666;DHT22;5889;51.350;6.708;2023-06-10T00:16:08;22.70;82.90
11666;DHT22;5889;51.350;6.708;2023-06-10T00:18:35;22.70;82.90
11666;DHT22;5889;51.350;6.708;2023-06-10T00:21:04;22.60;83.10
11666;DHT22;5889;51.350;6.708;2023-06-10T00:23:31;22.60;83.10
11666;DHT22;5889;51.350;6.708;2023-06-10T00:26:04;22.60;83.10
11666;DHT22;5889;51.350;6.708;2023-06-10T00:28:31;22.60;83.20
11666;DHT22;5889;51.350;6.708;2023-06-10T00:30:58;22.60;83.20
11666;DHT22;5889;51.350;6.708;2023-06-10T00:33:25;22.50;83.40
11666;DHT22;5889;51.350;6.708;2023-06-10T00:35:51;22.50;83.60
11666;DHT22;5889;51.350;6.708;2023-06-10T00:38:18;22.40;83.70
11666;DHT22;5889;51.350;6.708;2023-06-10T00:40:45;22.40;84.00
11666;DHT22;5889;51.350;6.708;2023-06-10T00:43:13;22.30;84.10
11666;DHT22;5889;51.350;6.708;2023-06-10T00:45:40;22.30;84.40
11666;DHT22;5889;51.350;6.708;2023-06-10T00:48:07;22.20;84.60
11666;DHT22;5889;51.350;6.708;2023-06-10T00:50:33;22.20;84.80
11666;DHT22;5889;51.350;6.708;2023-06-10T00:53:04;22.10;85.00
11666;DHT22;5889;51.350;6.708;2023-06-10T00:55:32;22.10;85.10
11666;DHT22;5889;51.350;6.708;2023-06-10T00:57:59;22.00;85.30
11666;DHT22;5889;51.350;6.708;2023-06-10T01:00:27;22.00;85.40
11666;DHT22;5889;51.350;6.708;2023-06-10T01:02:54;22.00;85.50
11666;DHT22;5889;51.350;6.708;2023-06-10T01:05:21;21.90;85.60
11666;DHT22;5889;51.350;6.708;2023-06-10T01:07:52;21.90;85.70
11666;DHT22;5889;51.350;6.708;2023-06-10T01:10:29;21.90;85.80
11666;DHT22;5889;51.350;6.708;2023-06-10T01:13:00;21.90;85.90
11666;DHT22;5889;51.350;6.708;2023-06-10T01:15:29;21.80;86.00
11666;DHT22;5889;51.350;6.708;2023-06-10T01:17:57;21.80;86.00
11666;DHT22;5889;51.350;6.708;2023-06-10T01:20:25;21.80;86.20
11666;DHT22;5889;51.350;6.708;2023-06-10T01:22:54;21.80;86.20
11666;DHT22;5889;51.350;6.708;2023-06-10T01:25:21;21.80;86.30
11666;DHT22;5889;51.350;6.708;2023-06-10T01:27:55;21.80;86.40
11666;DHT22;5889;51.350;6.708;2023-06-10T01:30:28;21.70;86.50
11666;DHT22;5889;51.350;6.708;2023-06-10T01:32:59;21.70;86.60
11666;DHT22;5889;51.350;6.708;2023-06-10T01:35:30;21.70;86.70
11666;DHT22;5889;51.350;6.708;2023-06-10T01:38:00;21.70;86.70
11666;DHT22;5889;51.350;6.708;2023-06-10T01:40:28;21.60;86.90
11666;DHT22;5889;51.350;6.708;2023-06-10T01:42:55;21.70;87.00
11666;DHT22;5889;51.350;6.708;2023-06-10T01:45:22;21.60;86.90
11666;DHT22;5889;51.350;6.708;2023-06-10T01:47:49;21.60;87.00
11666;DHT22;5889;51.350;6.708;2023-06-10T01:50:16;21.60;87.40
11666;DHT22;5889;51.350;6.708;2023-06-10T01:52:42;21.60;87.50
11666;DHT22;5889;51.350;6.708;2023-06-10T01:55:10;21.50;88.20
11666;DHT22;5889;51.350;6.708;2023-06-10T01:57:37;21.50;87.90
11666;DHT22;5889;51.350;6.708;2023-06-10T02:00:05;21.50;88.10
11666;DHT22;5889;51.350;6.708;2023-06-10T02:02:31;21.40;88.20
11666;DHT22;5889;51.350;6.708;2023-06-10T02:04:58;21.40;88.40
11666;DHT22;5889;51.350;6.708;2023-06-10T02:07:25;21.40;88.40
11666;DHT22;5889;51.350;6.708;2023-06-10T02:09:52;21.40;88.50
11666;DHT22;5889;51.350;6.708;2023-06-10T02:12:20;21.40;88.80
11666;DHT22;5889;51.350;6.708;2023-06-10T02:14:47;21.30;89.10
11666;DHT22;5889;51.350;6.708;2023-06-10T02:17:13;21.30;89.00
11666;DHT22;5889;51.350;6.708;2023-06-10T02:19:41;21.30;89.30
11666;DHT22;5889;51.350;6.708;2023-06-10T02:22:08;21.30;89.20
11666;DHT22;5889;51.350;6.708;2023-06-10T02:24:36;21.30;89.40
11666;DHT22;5889;51.350;6.708;2023-06-10T02:27:04;21.30;89.50
11666;DHT22;5889;51.350;6.708;2023-06-10T02:29:33;21.30;89.60
11666;DHT22;5889;51.350;6.708;2023-06-10T02:32:01;21.20;89.90
11666;DHT22;5889;51.350;6.708;2023-06-10T02:34:28;21.20;90.00
11666;DHT22;5889;51.350;6.708;2023-06-10T02:36:55;21.20;90.20
11666;DHT22;5889;51.350;6.708;2023-06-10T02:39:22;21.10;90.10
11666;DHT22;5889;51.350;6.708;2023-06-10T02:41:48;21.10;90.10
11666;DHT22;5889;51.350;6.708;2023-06-10T02:44:15;21.10;90.20
11666;DHT22;5889;51.350;6.708;2023-06-10T02:46:43;21.10;90.20
11666;DHT22;5889;51.350;6.708;2023-06-10T02:49:11;21.10;90.20
11666;DHT22;5889;51.350;6.708;2023-06-10T02:51:37;21.10;90.40
11666;DHT22;5889;51.350;6.708;2023-06-10T02:54:04;21.00;90.40
11666;DHT22;5889;51.350;6.708;2023-06-10T02:56:32;21.00;90.50
11666;DHT22;5889;51.350;6.708;2023-06-10T02:58:58;21.00;90.60
11666;DHT22;5889;51.350;6.708;2023-06-10T03:01:25;20.90;90.70
11666;DHT22;5889;51.350;6.708;2023-06-10T03:03:54;20.90;90.80
11666;DHT22;5889;51.350;6.708;2023-06-10T03:06:21;20.90;90.90
11666;DHT22;5889;51.350;6.708;2023-06-10T03:08:50;20.80;90.90
11666;DHT22;5889;51.350;6.708;2023-06-10T03:11:17;20.70;91.00
11666;DHT22;5889;51.350;6.708;2023-06-10T03:13:44;20.80;91.10
11666;DHT22;5889;51.350;6.708;2023-06-10T03:16:12;20.70;91.10
11666;DHT22;5889;51.350;6.708;2023-06-10T03:18:38;20.70;91.20
11666;DHT22;5889;51.350;6.708;2023-06-10T03:21:06;20.60;91.30
11666;DHT22;5889;51.350;6.708;2023-06-10T03:23:34;20.60;91.40
11666;DHT22;5889;51.350;6.708;2023-06-10T03:26:00;20.60;91.40
11666;DHT22;5889;51.350;6.708;2023-06-10T03:28:27;20.30;91.50
11666;DHT22;5889;51.350;6.708;2023-06-10T03:30:54;20.20;91.90
11666;DHT22;5889;51.350;6.708;2023-06-10T03:33:20;20.00;92.20
11666;DHT22;5889;51.350;6.708;2023-06-10T03:35:47;19.90;92.60
11666;DHT22;5889;51.350;6.708;2023-06-10T03:38:15;19.80;92.90
11666;DHT22;5889;51.350;6.708;2023-06-10T03:40:42;19.70;93.20
11666;DHT22;5889;51.350;6.708;2023-06-10T03:43:10;19.80;93.40
11666;DHT22;5889;51.350;6.708;2023-06-10T03:45:36;19.80;93.50
11666;DHT22;5889;51.350;6.708;2023-06-10T03:48:04;19.90;93.50
11666;DHT22;5889;51.350;6.708;2023-06-10T03:50:31;20.00;93.60
11666;DHT22;5889;51.350;6.708;2023-06-10T03:52:58;20.00;93.60
11666;DHT22;5889;51.350;6.708;2023-06-10T03:55:26;19.90;93.80
11666;DHT22;5889;51.350;6.708;2023-06-10T03:57:53;19.90;94.00
11666;DHT22;5889;51.350;6.708;2023-06-10T04:00:20;19.80;94.20
11666;DHT22;5889;51.350;6.708;2023-06-10T04:02:48;19.80;94.40
11666;DHT22;5889;51.350;6.708;2023-06-10T04:05:17;19.80;94.60
11666;DHT22;5889;51.350;6.708;2023-06-10T04:07:46;19.80;94.70
11666;DHT22;5889;51.350;6.708;2023-06-10T04:10:14;19.80;94.90
11666;DHT22;5889;51.350;6.708;2023-06-10T04:12:42;19.80;95.00
11666;DHT22;5889;51.350;6.708;2023-06-10T04:15:09;19.80;95.20
11666;DHT22;5889;51.350;6.708;2023-06-10T04:17:36;19.90;95.30
11666;DHT22;5889;51.350;6.708;2023-06-10T04:20:03;19.90;95.40
11666;DHT22;5889;51.350;6.708;2023-06-10T04:22:33;19.90;95.60
11666;DHT22;5889;51.350;6.708;2023-06-10T04:24:59;20.00;95.60
11666;DHT22;5889;51.350;6.708;2023-06-10T04:27:26;20.20;95.70
11666;DHT22;5889;51.350;6.708;2023-06-10T04:29:54;20.40;95.70
11666;DHT22;5889;51.350;6.708;2023-06-10T04:32:21;20.50;95.60
11666;DHT22;5889;51.350;6.708;2023-06-10T04:34:48;20.60;95.50
11666;DHT22;5889;51.350;6.708;2023-06-10T04:37:15;20.60;95.30
11666;DHT22;5889;51.350;6.708;2023-06-10T04:39:41;20.70;95.30
11666;DHT22;5889;51.350;6.708;2023-06-10T04:42:08;20.80;95.10
11666;DHT22;5889;51.350;6.708;2023-06-10T04:44:35;21.00;95.30
11666;DHT22;5889;51.350;6.708;2023-06-10T04:47:04;21.10;94.90
11666;DHT22;5889;51.350;6.708;2023-06-10T04:49:31;21.20;94.60
11666;DHT22;5889;51.350;6.708;2023-06-10T04:51:58;21.40;94.50
11666;DHT22;5889;51.350;6.708;2023-06-10T04:54:25;21.50;94.20
11666;DHT22;5889;51.350;6.708;2023-06-10T04:56:52;21.60;94.00
11666;DHT22;5889;51.350;6.708;2023-06-10T04:59:19;21.70;93.80
11666;DHT22;5889;51.350;6.708;2023-06-10T05:01:46;21.70;93.60
11666;DHT22;5889;51.350;6.708;2023-06-10T05:04:14;21.80;93.50
11666;DHT22;5889;51.350;6.708;2023-06-10T05:06:41;21.90;93.40
11666;DHT22;5889;51.350;6.708;2023-06-10T05:09:08;22.00;93.30
11666;DHT22;5889;51.350;6.708;2023-06-10T05:11:34;22.00;93.10
11666;DHT22;5889;51.350;6.708;2023-06-10T05:14:01;22.10;93.10
11666;DHT22;5889;51.350;6.708;2023-06-10T05:16:28;22.10;93.20
11666;DHT22;5889;51.350;6.708;2023-06-10T05:18:55;22.10;92.90
11666;DHT22;5889;51.350;6.708;2023-06-10T05:21:23;22.10;92.90
11666;DHT22;5889;51.350;6.708;2023-06-10T05:23:49;22.00;92.90
11666;DHT22;5889;51.350;6.708;2023-06-10T05:26:16;22.10;93.30
11666;DHT22;5889;51.350;6.708;2023-06-10T05:28:43;22.20;92.80
11666;DHT22;5889;51.350;6.708;2023-06-10T05:31:09;22.20;92.70
11666;DHT22;5889;51.350;6.708;2023-06-10T05:33:36;22.10;92.50
11666;DHT22;5889;51.350;6.708;2023-06-10T05:36:03;22.20;92.40
11666;DHT22;5889;51.350;6.708;2023-06-10T05:38:31;22.30;92.40
11666;DHT22;5889;51.350;6.708;2023-06-10T05:40:58;22.30;92.60
11666;DHT22;5889;51.350;6.708;2023-06-10T05:43:25;22.20;92.60
11666;DHT22;5889;51.350;6.708;2023-06-10T05:45:52;22.10;92.60
11666;DHT22;5889;51.350;6.708;2023-06-10T05:48:18;22.20;92.50
11666;DHT22;5889;51.350;6.708;2023-06-10T05:50:46;22.30;92.30
11666;DHT22;5889;51.350;6.708;2023-06-10T05:53:13;22.40;92.20
11666;DHT22;5889;51.350;6.708;2023-06-10T05:55:43;22.40;92.00
11666;DHT22;5889;51.350;6.708;2023-06-10T05:58:10;22.50;92.00
11666;DHT22;5889;51.350;6.708;2023-06-10T06:00:37;22.50;91.70
11666;DHT22;5889;51.350;6.708;2023-06-10T06:03:06;22.60;91.60
11666;DHT22;5889;51.350;6.708;2023-06-10T06:05:32;22.80;91.60
11666;DHT22;5889;51.350;6.708;2023-06-10T06:08:00;22.90;91.60
11666;DHT22;5889;51.350;6.708;2023-06-10T06:10:28;23.00;91.30
11666;DHT22;5889;51.350;6.708;2023-06-10T06:12:56;23.10;91.10
11666;DHT22;5889;51.350;6.708;2023-06-10T06:15:23;23.10;90.50
11666;DHT22;5889;51.350;6.708;2023-06-10T06:17:50;23.20;90.60
11666;DHT22;5889;51.350;6.708;2023-06-10T06:20:18;23.30;90.40
11666;DHT22;5889;51.350;6.708;2023-06-10T06:22:44;23.40;90.20
11666;DHT22;5889;51.350;6.708;2023-06-10T06:25:11;23.40;90.20
11666;DHT22;5889;51.350;6.708;2023-06-10T06:27:38;23.40;89.80
11666;DHT22;5889;51.350;6.708;2023-06-10T06:30:07;23.50;89.40
11666;DHT22;5889;51.350;6.708;2023-06-10T06:32:34;23.60;88.50
11666;DHT22;5889;51.350;6.708;2023-06-10T06:35:01;23.60;88.70
11666;DHT22;5889;51.350;6.708;2023-06-10T06:37:28;23.60;88.00
11666;DHT22;5889;51.350;6.708;2023-06-10T06:39:54;23.70;87.70
11666;DHT22;5889;51.350;6.708;2023-06-10T06:42:21;23.90;87.60
11666;DHT22;5889;51.350;6.708;2023-06-10T06:44:48;24.10;87.30
11666;DHT22;5889;51.350;6.708;2023-06-10T06:47:16;24.20;86.80
11666;DHT22;5889;51.350;6.708;2023-06-10T06:49:47;24.30;86.30
11666;DHT22;5889;51.350;6.708;2023-06-10T06:52:15;24.40;85.80
11666;DHT22;5889;51.350;6.708;2023-06-10T06:54:42;24.40;85.50
11666;DHT22;5889;51.350;6.708;2023-06-10T06:57:09;24.50;84.80
11666;DHT22;5889;51.350;6.708;2023-06-10T06:59:36;24.60;84.80
11666;DHT22;5889;51.350;6.708;2023-06-10T07:02:03;24.70;84.90
11666;DHT22;5889;51.350;6.708;2023-06-10T07:04:31;24.90;84.50
11666;DHT22;5889;51.350;6.708;2023-06-10T07:06:58;24.90;84.60
11666;DHT22;5889;51.350;6.708;2023-06-10T07:09:24;25.00;83.90
11666;DHT22;5889;51.350;6.708;2023-06-10T07:11:51;25.10;83.50
11666;DHT22;5889;51.350;6.708;2023-06-10T07:14:18;25.30;83.60
11666;DHT22;5889;51.350;6.708;2023-06-10T07:16:45;25.30;82.90
11666;DHT22;5889;51.350;6.708;2023-06-10T07:19:13;25.20;82.60
11666;DHT22;5889;51.350;6.708;2023-06-10T07:21:41;25.30;82.70
11666;DHT22;5889;51.350;6.708;2023-06-10T07:24:08;25.40;82.40
11666;DHT22;5889;51.350;6.708;2023-06-10T07:26:35;25.40;81.30
11666;DHT22;5889;51.350;6.708;2023-06-10T07:29:02;25.50;81.70
11666;DHT22;5889;51.350;6.708;2023-06-10T07:31:28;25.50;80.70
11666;DHT22;5889;51.350;6.708;2023-06-10T07:33:55;25.50;80.40
11666;DHT22;5889;51.350;6.708;2023-06-10T07:36:22;25.70;80.20
11666;DHT22;5889;51.350;6.708;2023-06-10T07:38:50;25.70;80.20
11666;DHT22;5889;51.350;6.708;2023-06-10T07:41:17;25.80;79.90
11666;DHT22;5889;51.350;6.708;2023-06-10T07:43:46;26.00;79.60
11666;DHT22;5889;51.350;6.708;2023-06-10T07:46:12;26.10;78.90
11666;DHT22;5889;51.350;6.708;2023-06-10T07:48:39;26.20;79.10
11666;DHT22;5889;51.350;6.708;2023-06-10T07:51:06;26.40;78.80
11666;DHT22;5889;51.350;6.708;2023-06-10T07:53:32;26.60;78.80
11666;DHT22;5889;51.350;6.708;2023-06-10T07:56:00;26.50;78.50
11666;DHT22;5889;51.350;6.708;2023-06-10T07:58:27;26.50;78.30
11666;DHT22;5889;51.350;6.708;2023-06-10T08:00:54;26.70;78.80
11666;DHT22;5889;51.350;6.708;2023-06-10T08:03:21;27.00;78.10
11666;DHT22;5889;51.350;6.708;2023-06-10T08:05:47;27.10;77.40
11666;DHT22;5889;51.350;6.708;2023-06-10T08:08:14;27.00;77.00
11666;DHT22;5889;51.350;6.708;2023-06-10T08:10:41;27.00;76.90
11666;DHT22;5889;51.350;6.708;2023-06-10T08:13:09;27.30;76.30
11666;DHT22;5889;51.350;6.708;2023-06-10T08:15:36;27.50;75.80
11666;DHT22;5889;51.350;6.708;2023-06-10T08:18:03;27.80;76.60
11666;DHT22;5889;51.350;6.708;2023-06-10T08:20:29;28.20;74.60
11666;DHT22;5889;51.350;6.708;2023-06-10T08:22:56;28.30;74.30
11666;DHT22;5889;51.350;6.708;2023-06-10T08:25:23;28.40;74.60
11666;DHT22;5889;51.350;6.708;2023-06-10T08:27:50;28.50;73.90
11666;DHT22;5889;51.350;6.708;2023-06-10T08:30:18;28.70;74.20
11666;DHT22;5889;51.350;6.708;2023-06-10T08:32:45;29.00;74.20
11666;DHT22;5889;51.350;6.708;2023-06-10T08:35:12;29.30;72.90
11666;DHT22;5889;51.350;6.708;2023-06-10T08:37:38;29.00;72.60
11666;DHT22;5889;51.350;6.708;2023-06-10T08:40:06;28.80;72.90
11666;DHT22;5889;51.350;6.708;2023-06-10T08:42:39;28.30;74.30
11666;DHT22;5889;51.350;6.708;2023-06-10T08:45:07;28.60;74.10
11666;DHT22;5889;51.350;6.708;2023-06-10T08:47:39;28.80;73.50
11666;DHT22;5889;51.350;6.708;2023-06-10T08:50:08;29.00;72.80
11666;DHT22;5889;51.350;6.708;2023-06-10T08:52:37;29.20;72.80
11666;DHT22;5889;51.350;6.708;2023-06-10T08:55:09;29.60;72.40
11666;DHT22;5889;51.350;6.708;2023-06-10T08:57:37;29.90;71.90
11666;DHT22;5889;51.350;6.708;2023-06-10T09:00:06;29.90;70.80
11666;DHT22;5889;51.350;6.708;2023-06-10T09:02:33;29.90;71.30
11666;DHT22;5889;51.350;6.708;2023-06-10T09:05:03;30.00;70.90
11666;DHT22;5889;51.350;6.708;2023-06-10T09:07:30;30.20;71.20
11666;DHT22;5889;51.350;6.708;2023-06-10T09:10:01;30.30;71.50
11666;DHT22;5889;51.350;6.708;2023-06-10T09:12:30;30.40;70.90
11666;DHT22;5889;51.350;6.708;2023-06-10T09:14:57;30.50;70.00
11666;DHT22;5889;51.350;6.708;2023-06-10T09:17:24;30.30;70.30
11666;DHT22;5889;51.350;6.708;2023-06-10T09:19:52;30.20;70.90
11666;DHT22;5889;51.350;6.708;2023-06-10T09:22:22;30.00;70.50
11666;DHT22;5889;51.350;6.708;2023-06-10T09:24:49;29.80;71.50
11666;DHT22;5889;51.350;6.708;2023-06-10T09:27:15;29.80;71.30
11666;DHT22;5889;51.350;6.708;2023-06-10T09:29:46;30.00;71.90
11666;DHT22;5889;51.350;6.708;2023-06-10T09:32:14;30.20;71.00
11666;DHT22;5889;51.350;6.708;2023-06-10T09:34:40;30.20;70.60
11666;DHT22;5889;51.350;6.708;2023-06-10T09:37:07;30.10;71.00
11666;DHT22;5889;51.350;6.708;2023-06-10T09:39:38;30.10;70.50
11666;DHT22;5889;51.350;6.708;2023-06-10T09:42:15;30.10;69.40
11666;DHT22;5889;51.350;6.708;2023-06-10T09:44:49;30.20;70.80
11666;DHT22;5889;51.350;6.708;2023-06-10T09:47:20;30.40;70.80
11666;DHT22;5889;51.350;6.708;2023-06-10T09:49:47;30.70;70.10
11666;DHT22;5889;51.350;6.708;2023-06-10T09:52:21;30.90;69.80
11666;DHT22;5889;51.350;6.708;2023-06-10T09:54:50;31.40;68.60
11666;DHT22;5889;51.350;6.708;2023-06-10T09:57:17;31.40;68.70
11666;DHT22;5889;51.350;6.708;2023-06-10T09:59:44;31.10;69.10
11666;DHT22;5889;51.350;6.708;2023-06-10T10:02:14;31.10;69.30
11666;DHT22;5889;51.350;6.708;2023-06-10T10:04:41;31.10;69.10
11666;DHT22;5889;51.350;6.708;2023-06-10T10:07:08;31.30;68.00
11666;DHT22;5889;51.350;6.708;2023-06-10T10:09:36;31.30;67.90
11666;DHT22;5889;51.350;6.708;2023-06-10T10:12:07;31.20;67.80
11666;DHT22;5889;51.350;6.708;2023-06-10T10:14:36;31.10;67.10
11666;DHT22;5889;51.350;6.708;2023-06-10T10:17:05;31.40;68.20
11666;DHT22;5889;51.350;6.708;2023-06-10T10:19:36;31.70;68.30
11666;DHT22;5889;51.350;6.708;2023-06-10T10:22:07;31.40;67.80
11666;DHT22;5889;51.350;6.708;2023-06-10T10:24:38;31.60;68.70
11666;DHT22;5889;51.350;6.708;2023-06-10T10:27:13;31.70;67.70
11666;DHT22;5889;51.350;6.708;2023-06-10T10:29:46;31.40;67.20
11666;DHT22;5889;51.350;6.708;2023-06-10T10:32:14;31.10;67.50
11666;DHT22;5889;51.350;6.708;2023-06-10T10:34:47;31.10;67.50
11666;DHT22;5889;51.350;6.708;2023-06-10T10:37:16;31.20;67.90
11666;DHT22;5889;51.350;6.708;2023-06-10T10:39:44;31.20;67.50
11666;DHT22;5889;51.350;6.708;2023-06-10T10:42:13;31.20;67.40
11666;DHT22;5889;51.350;6.708;2023-06-10T10:44:40;31.00;67.20
11666;DHT22;5889;51.350;6.708;2023-06-10T10:47:08;31.20;67.20
11666;DHT22;5889;51.350;6.708;2023-06-10T10:49:35;31.40;67.50
11666;DHT22;5889;51.350;6.708;2023-06-10T10:52:04;31.50;67.20
11666;DHT22;5889;51.350;6.708;2023-06-10T10:54:32;31.90;66.20
11666;DHT22;5889;51.350;6.708;2023-06-10T10:57:14;32.10;65.80
11666;DHT22;5889;51.350;6.708;2023-06-10T10:59:58;32.00;65.60
11666;DHT22;5889;51.350;6.708;2023-06-10T11:02:37;32.10;64.30
11666;DHT22;5889;51.350;6.708;2023-06-10T11:05:09;32.30;64.50
11666;DHT22;5889;51.350;6.708;2023-06-10T11:07:37;32.30;63.90
11666;DHT22;5889;51.350;6.708;2023-06-10T11:10:07;32.20;63.80
11666;DHT22;5889;51.350;6.708;2023-06-10T11:12:50;32.10;63.20
11666;DHT22;5889;51.350;6.708;2023-06-10T11:15:22;32.00;63.80
11666;DHT22;5889;51.350;6.708;2023-06-10T11:18:12;31.90;63.90
11666;DHT22;5889;51.350;6.708;2023-06-10T11:20:51;31.90;63.80
11666;DHT22;5889;51.350;6.708;2023-06-10T11:23:41;32.10;63.80
11666;DHT22;5889;51.350;6.708;2023-06-10T11:29:10;32.20;64.10
11666;DHT22;5889;51.350;6.708;2023-06-10T11:31:50;32.20;64.10
11666;DHT22;5889;51.350;6.708;2023-06-10T11:34:23;32.20;64.50
11666;DHT22;5889;51.350;6.708;2023-06-10T11:36:53;32.20;63.60
11666;DHT22;5889;51.350;6.708;2023-06-10T11:39:21;32.10;64.40
11666;DHT22;5889;51.350;6.708;2023-06-10T11:41:50;32.20;64.30
11666;DHT22;5889;51.350;6.708;2023-06-10T11:44:19;32.20;63.20
11666;DHT22;5889;51.350;6.708;2023-06-10T11:46:48;32.20;63.40
11666;DHT22;5889;51.350;6.708;2023-06-10T11:49:15;32.00;61.70
11666;DHT22;5889;51.350;6.708;2023-06-10T11:51:42;32.10;62.00
11666;DHT22;5889;51.350;6.708;2023-06-10T11:54:14;32.40;61.20
11666;DHT22;5889;51.350;6.708;2023-06-10T11:56:41;32.60;62.30
11666;DHT22;5889;51.350;6.708;2023-06-10T11:59:08;32.70;62.00
11666;DHT22;5889;51.350;6.708;2023-06-10T12:01:37;32.60;61.40
11666;DHT22;5889;51.350;6.708;2023-06-10T12:04:06;32.80;61.10
11666;DHT22;5889;51.350;6.708;2023-06-10T12:06:44;33.20;60.20
11666;DHT22;5889;51.350;6.708;2023-06-10T12:09:19;33.40;59.70
11666;DHT22;5889;51.350;6.708;2023-06-10T12:11:49;33.70;59.30
11666;DHT22;5889;51.350;6.708;2023-06-10T12:14:50;33.80;60.00
11666;DHT22;5889;51.350;6.708;2023-06-10T12:17:21;33.90;59.00
11666;DHT22;5889;51.350;6.708;2023-06-10T12:19:48;33.70;59.90
11666;DHT22;5889;51.350;6.708;2023-06-10T12:22:15;33.60;60.40
11666;DHT22;5889;51.350;6.708;2023-06-10T12:24:45;33.70;60.10
11666;DHT22;5889;51.350;6.708;2023-06-10T12:27:12;33.90;59.80
11666;DHT22;5889;51.350;6.708;2023-06-10T12:29:39;33.80;59.80
11666;DHT22;5889;51.350;6.708;2023-06-10T12:32:07;33.50;59.60
11666;DHT22;5889;51.350;6.708;2023-06-10T12:34:37;33.60;59.70
11666;DHT22;5889;51.350;6.708;2023-06-10T12:37:10;33.70;59.70
11666;DHT22;5889;51.350;6.708;2023-06-10T12:39:39;33.60;59.90
11666;DHT22;5889;51.350;6.708;2023-06-10T12:42:06;33.80;59.80
11666;DHT22;5889;51.350;6.708;2023-06-10T12:44:38;33.80;59.50
11666;DHT22;5889;51.350;6.708;2023-06-10T12:47:08;33.50;60.40
11666;DHT22;5889;51.350;6.708;2023-06-10T12:49:39;33.50;59.50
11666;DHT22;5889;51.350;6.708;2023-06-10T12:52:06;33.40;59.60
11666;DHT22;5889;51.350;6.708;2023-06-10T12:54:34;33.40;59.80
11666;DHT22;5889;51.350;6.708;2023-06-10T12:57:01;33.40;59.60
11666;DHT22;5889;51.350;6.708;2023-06-10T12:59:28;33.50;59.20
11666;DHT22;5889;51.350;6.708;2023-06-10T13:01:55;33.50;59.10
11666;DHT22;5889;51.350;6.708;2023-06-10T13:04:22;33.40;59.80
11666;DHT22;5889;51.350;6.708;2023-06-10T13:06:50;33.50;60.10
11666;DHT22;5889;51.350;6.708;2023-06-10T13:09:17;33.90;59.30
11666;DHT22;5889;51.350;6.708;2023-06-10T13:11:44;34.10;58.70
11666;DHT22;5889;51.350;6.708;2023-06-10T13:14:11;34.20;58.50
11666;DHT22;5889;51.350;6.708;2023-06-10T13:16:38;34.10;59.10
11666;DHT22;5889;51.350;6.708;2023-06-10T13:19:05;34.10;58.40
11666;DHT22;5889;51.350;6.708;2023-06-10T13:21:32;34.00;58.90
11666;DHT22;5889;51.350;6.708;2023-06-10T13:24:01;33.60;58.90
11666;DHT22;5889;51.350;6.708;2023-06-10T13:26:27;33.40;59.10
11666;DHT22;5889;51.350;6.708;2023-06-10T13:28:54;33.50;59.30
11666;DHT22;5889;51.350;6.708;2023-06-10T13:31:21;33.70;59.20
11666;DHT22;5889;51.350;6.708;2023-06-10T13:33:48;33.70;59.90
11666;DHT22;5889;51.350;6.708;2023-06-10T13:36:14;33.70;59.60
11666;DHT22;5889;51.350;6.708;2023-06-10T13:38:41;34.00;59.80
11666;DHT22;5889;51.350;6.708;2023-06-10T13:41:10;34.00;59.40
11666;DHT22;5889;51.350;6.708;2023-06-10T13:43:37;34.00;60.70
11666;DHT22;5889;51.350;6.708;2023-06-10T13:46:04;33.90;60.00
11666;DHT22;5889;51.350;6.708;2023-06-10T13:48:31;33.90;59.90
11666;DHT22;5889;51.350;6.708;2023-06-10T13:50:58;33.70;60.00
11666;DHT22;5889;51.350;6.708;2023-06-10T13:53:25;33.40;59.90
11666;DHT22;5889;51.350;6.708;2023-06-10T13:55:52;33.40;59.90
11666;DHT22;5889;51.350;6.708;2023-06-10T13:58:20;33.60;59.70
11666;DHT22;5889;51.350;6.708;2023-06-10T14:00:47;33.80;60.00
11666;DHT22;5889;51.350;6.708;2023-06-10T14:03:14;34.10;59.70
11666;DHT22;5889;51.350;6.708;2023-06-10T14:05:40;34.40;59.60
11666;DHT22;5889;51.350;6.708;2023-06-10T14:08:07;34.50;60.20
11666;DHT22;5889;51.350;6.708;2023-06-10T14:10:34;34.30;59.70
11666;DHT22;5889;51.350;6.708;2023-06-10T14:13:01;34.10;59.30
11666;DHT22;5889;51.350;6.708;2023-06-10T14:15:29;33.90;59.30
11666;DHT22;5889;51.350;6.708;2023-06-10T14:17:56;33.70;59.10
11666;DHT22;5889;51.350;6.708;2023-06-10T14:20:22;33.40;59.50
11666;DHT22;5889;51.350;6.708;2023-06-10T14:22:51;33.40;59.60
11666;DHT22;5889;51.350;6.708;2023-06-10T14:25:17;33.50;59.50
11666;DHT22;5889;51.350;6.708;2023-06-10T14:27:44;33.40;59.80
11666;DHT22;5889;51.350;6.708;2023-06-10T14:30:13;33.60;59.90
11666;DHT22;5889;51.350;6.708;2023-06-10T14:32:41;33.40;59.80
11666;DHT22;5889;51.350;6.708;2023-06-10T14:35:08;33.20;60.50
11666;DHT22;5889;51.350;6.708;2023-06-10T14:37:34;33.20;60.60
11666;DHT22;5889;51.350;6.708;2023-06-10T14:40:02;33.20;60.40
11666;DHT22;5889;51.350;6.708;2023-06-10T14:42:29;33.10;60.40
11666;DHT22;5889;51.350;6.708;2023-06-10T14:44:55;33.00;60.40
11666;DHT22;5889;51.350;6.708;2023-06-10T14:47:22;33.00;60.00
11666;DHT22;5889;51.350;6.708;2023-06-10T14:49:50;32.90;60.10
11666;DHT22;5889;51.350;6.708;2023-06-10T14:52:17;32.80;60.30
11666;DHT22;5889;51.350;6.708;2023-06-10T14:54:44;32.70;60.40
11666;DHT22;5889;51.350;6.708;2023-06-10T14:57:10;32.70;60.80
11666;DHT22;5889;51.350;6.708;2023-06-10T14:59:37;32.80;60.70
11666;DHT22;5889;51.350;6.708;2023-06-10T15:02:04;32.80;60.30
11666;DHT22;5889;51.350;6.708;2023-06-10T15:04:31;32.70;60.50
11666;DHT22;5889;51.350;6.708;2023-06-10T15:06:59;32.80;60.40
11666;DHT22;5889;51.350;6.708;2023-06-10T15:09:26;33.10;60.70
11666;DHT22;5889;51.350;6.708;2023-06-10T15:11:53;33.20;61.20
11666;DHT22;5889;51.350;6.708;2023-06-10T15:14:20;33.20;60.20
11666;DHT22;5889;51.350;6.708;2023-06-10T15:16:47;32.90;60.20
11666;DHT22;5889;51.350;6.708;2023-06-10T15:19:13;32.70;60.20
11666;DHT22;5889;51.350;6.708;2023-06-10T15:21:40;32.90;60.50
11666;DHT22;5889;51.350;6.708;2023-06-10T15:24:09;33.20;59.90
11666;DHT22;5889;51.350;6.708;2023-06-10T15:26:35;33.00;59.40
11666;DHT22;5889;51.350;6.708;2023-06-10T15:29:02;32.70;59.80
11666;DHT22;5889;51.350;6.708;2023-06-10T15:31:30;32.50;60.10
11666;DHT22;5889;51.350;6.708;2023-06-10T15:33:57;32.50;60.70
11666;DHT22;5889;51.350;6.708;2023-06-10T15:36:24;32.60;60.30
11666;DHT22;5889;51.350;6.708;2023-06-10T15:38:52;32.50;60.50
11666;DHT22;5889;51.350;6.708;2023-06-10T15:41:20;32.50;60.70
11666;DHT22;5889;51.350;6.708;2023-06-10T15:43:47;32.60;60.40
11666;DHT22;5889;51.350;6.708;2023-06-10T15:46:13;32.80;59.80
11666;DHT22;5889;51.350;6.708;2023-06-10T15:48:40;32.90;59.30
11666;DHT22;5889;51.350;6.708;2023-06-10T15:51:07;33.10;59.80
11666;DHT22;5889;51.350;6.708;2023-06-10T15:53:34;33.40;59.60